sensor_id;sensor_type;location;lat;lon;timestamp;P1;durP1;ratioP1;P2;durP2;ratioP2
19492;SDS011;9887;54.366;10.958;2023-08-30T00:00:39;8.77;;;4.95;;
19492;SDS011;9887;54.366;10.958;2023-08-30T00:03:07;7.20;;;5.30;;
19492;SDS011;9887;54.366;10.958;2023-08-30T00:05:39;10.23;;;5.82;;
19492;SDS011;9887;54.366;10.958;2023-08-30T00:08:08;7.22;;;5.95;;
19492;SDS011;9887;54.366;10.958;2023-08-30T00:10:36;8.40;;;5.75;;
19492;SDS011;9887;54.366;10.958;2023-08-30T00:13:04;8.32;;;6.50;;
19492;SDS011;9887;54.366;10.958;2023-08-30T00:15:32;7.22;;;5.20;;
19492;SDS011;9887;54.366;10.958;2023-08-30T00:18:00;8.95;;;4.85;;
19492;SDS011;9887;54.366;10.958;2023-08-30T00:20:28;7.88;;;4.75;;
19492;SDS011;9887;54.366;10.958;2023-08-30T00:22:57;8.48;;;6.70;;
19492;SDS011;9887;54.366;10.958;2023-08-30T00:25:25;9.13;;;5.57;;
19492;SDS011;9887;54.366;10.958;2023-08-30T00:27:53;7.50;;;5.25;;
19492;SDS011;9887;54.366;10.958;2023-08-30T00:30:21;7.22;;;5.57;;
19492;SDS011;9887;54.366;10.958;2023-08-30T00:32:49;9.88;;;6.38;;
19492;SDS011;9887;54.366;10.958;2023-08-30T00:35:17;7.70;;;5.90;;
19492;SDS011;9887;54.366;10.958;2023-08-30T00:37:45;7.95;;;5.72;;
19492;SDS011;9887;54.366;10.958;2023-08-30T00:40:14;8.23;;;5.63;;
19492;SDS011;9887;54.366;10.958;2023-08-30T00:42:42;8.40;;;5.60;;
19492;SDS011;9887;54.366;10.958;2023-08-30T00:45:10;8.88;;;6.78;;
19492;SDS011;9887;54.366;10.958;2023-08-30T00:47:38;9.23;;;6.68;;
19492;SDS011;9887;54.366;10.958;2023-08-30T00:50:06;12.05;;;7.68;;
19492;SDS011;9887;54.366;10.958;2023-08-30T00:52:35;7.15;;;5.55;;
19492;SDS011;9887;54.366;10.958;2023-08-30T00:55:03;9.32;;;6.13;;
19492;SDS011;9887;54.366;10.958;2023-08-30T00:57:33;7.75;;;5.88;;
19492;SDS011;9887;54.366;10.958;2023-08-30T01:00:02;7.63;;;5.22;;
19492;SDS011;9887;54.366;10.958;2023-08-30T01:02:32;6.32;;;4.10;;
19492;SDS011;9887;54.366;10.958;2023-08-30T01:05:01;8.63;;;6.82;;
19492;SDS011;9887;54.366;10.958;2023-08-30T01:07:29;7.30;;;6.03;;
19492;SDS011;9887;54.366;10.958;2023-08-30T01:09:58;8.20;;;5.45;;
19492;SDS011;9887;54.366;10.958;2023-08-30T01:12:27;9.55;;;6.85;;
19492;SDS011;9887;54.366;10.958;2023-08-30T01:15:00;9.45;;;6.18;;
19492;SDS011;9887;54.366;10.958;2023-08-30T01:17:33;7.78;;;6.30;;
19492;SDS011;9887;54.366;10.958;2023-08-30T01:20:03;6.55;;;4.53;;
19492;SDS011;9887;54.366;10.958;2023-08-30T01:22:38;7.82;;;5.55;;
19492;SDS011;9887;54.366;10.958;2023-08-30T01:25:20;8.35;;;6.18;;
19492;SDS011;9887;54.366;10.958;2023-08-30T01:28:03;9.40;;;6.60;;
19492;SDS011;9887;54.366;10.958;2023-08-30T01:30:33;8.73;;;5.95;;
19492;SDS011;9887;54.366;10.958;2023-08-30T01:33:04;8.98;;;6.70;;
19492;SDS011;9887;54.366;10.958;2023-08-30T01:35:33;8.02;;;6.03;;
19492;SDS011;9887;54.366;10.958;2023-08-30T01:38:06;9.00;;;5.13;;
19492;SDS011;9887;54.366;10.958;2023-08-30T01:40:36;11.15;;;6.05;;
19492;SDS011;9887;54.366;10.958;2023-08-30T01:43:08;8.13;;;5.35;;
19492;SDS011;9887;54.366;10.958;2023-08-30T01:45:38;7.50;;;5.53;;
19492;SDS011;9887;54.366;10.958;2023-08-30T01:48:08;10.90;;;5.57;;
19492;SDS011;9887;54.366;10.958;2023-08-30T01:50:38;5.43;;;4.30;;
19492;SDS011;9887;54.366;10.958;2023-08-30T01:53:08;7.88;;;5.28;;
19492;SDS011;9887;54.366;10.958;2023-08-30T01:55:39;7.25;;;5.32;;
19492;SDS011;9887;54.366;10.958;2023-08-30T01:58:08;8.13;;;4.85;;
19492;SDS011;9887;54.366;10.958;2023-08-30T02:00:37;9.10;;;5.40;;
19492;SDS011;9887;54.366;10.958;2023-08-30T02:03:09;6.32;;;4.78;;
19492;SDS011;9887;54.366;10.958;2023-08-30T02:05:39;7.18;;;4.95;;
19492;SDS011;9887;54.366;10.958;2023-08-30T02:08:16;8.60;;;5.75;;
19492;SDS011;9887;54.366;10.958;2023-08-30T02:10:47;8.30;;;5.10;;
19492;SDS011;9887;54.366;10.958;2023-08-30T02:13:20;6.03;;;4.53;;
19492;SDS011;9887;54.366;10.958;2023-08-30T02:15:54;4.40;;;3.47;;
19492;SDS011;9887;54.366;10.958;2023-08-30T02:18:24;6.45;;;4.57;;
19492;SDS011;9887;54.366;10.958;2023-08-30T02:20:56;6.07;;;4.40;;
19492;SDS011;9887;54.366;10.958;2023-08-30T02:23:24;7.68;;;4.80;;
19492;SDS011;9887;54.366;10.958;2023-08-30T02:25:53;7.40;;;5.07;;
19492;SDS011;9887;54.366;10.958;2023-08-30T02:28:23;7.53;;;5.28;;
19492;SDS011;9887;54.366;10.958;2023-08-30T02:30:52;6.35;;;4.82;;
19492;SDS011;9887;54.366;10.958;2023-08-30T02:33:21;7.45;;;4.93;;
19492;SDS011;9887;54.366;10.958;2023-08-30T02:35:49;7.70;;;4.50;;
19492;SDS011;9887;54.366;10.958;2023-08-30T02:38:16;6.88;;;4.45;;
19492;SDS011;9887;54.366;10.958;2023-08-30T02:40:46;9.80;;;4.88;;
19492;SDS011;9887;54.366;10.958;2023-08-30T02:43:15;7.10;;;4.75;;
19492;SDS011;9887;54.366;10.958;2023-08-30T02:45:45;6.88;;;4.57;;
19492;SDS011;9887;54.366;10.958;2023-08-30T02:48:13;7.63;;;4.80;;
19492;SDS011;9887;54.366;10.958;2023-08-30T02:50:41;7.47;;;4.90;;
19492;SDS011;9887;54.366;10.958;2023-08-30T02:53:09;8.88;;;4.50;;
19492;SDS011;9887;54.366;10.958;2023-08-30T02:55:37;7.93;;;4.05;;
19492;SDS011;9887;54.366;10.958;2023-08-30T02:58:05;6.05;;;4.40;;
19492;SDS011;9887;54.366;10.958;2023-08-30T03:00:33;7.15;;;4.07;;
19492;SDS011;9887;54.366;10.958;2023-08-30T03:03:03;5.35;;;3.75;;
19492;SDS011;9887;54.366;10.958;2023-08-30T03:05:31;10.32;;;3.97;;
19492;SDS011;9887;54.366;10.958;2023-08-30T03:08:01;5.53;;;4.20;;
19492;SDS011;9887;54.366;10.958;2023-08-30T03:10:29;7.80;;;3.95;;
19492;SDS011;9887;54.366;10.958;2023-08-30T03:12:57;10.57;;;5.05;;
19492;SDS011;9887;54.366;10.958;2023-08-30T03:15:25;5.97;;;4.70;;
19492;SDS011;9887;54.366;10.958;2023-08-30T03:17:53;7.95;;;4.80;;
19492;SDS011;9887;54.366;10.958;2023-08-30T03:20:24;8.25;;;4.47;;
19492;SDS011;9887;54.366;10.958;2023-08-30T03:22:52;6.45;;;4.05;;
19492;SDS011;9887;54.366;10.958;2023-08-30T03:25:19;4.75;;;2.80;;
19492;SDS011;9887;54.366;10.958;2023-08-30T03:27:47;4.20;;;3.00;;
19492;SDS011;9887;54.366;10.958;2023-08-30T03:30:15;5.47;;;3.00;;
19492;SDS011;9887;54.366;10.958;2023-08-30T03:32:43;4.38;;;2.88;;
19492;SDS011;9887;54.366;10.958;2023-08-30T03:35:11;6.60;;;3.17;;
19492;SDS011;9887;54.366;10.958;2023-08-30T03:37:42;6.50;;;3.28;;
19492;SDS011;9887;54.366;10.958;2023-08-30T03:40:10;4.13;;;2.60;;
19492;SDS011;9887;54.366;10.958;2023-08-30T03:42:39;7.35;;;3.33;;
19492;SDS011;9887;54.366;10.958;2023-08-30T03:45:07;5.10;;;3.55;;
19492;SDS011;9887;54.366;10.958;2023-08-30T03:47:36;6.13;;;3.00;;
19492;SDS011;9887;54.366;10.958;2023-08-30T03:50:05;6.72;;;3.30;;
19492;SDS011;9887;54.366;10.958;2023-08-30T03:52:35;8.05;;;4.65;;
19492;SDS011;9887;54.366;10.958;2023-08-30T03:55:04;6.47;;;4.43;;
19492;SDS011;9887;54.366;10.958;2023-08-30T03:57:34;4.85;;;3.95;;
19492;SDS011;9887;54.366;10.958;2023-08-30T04:00:02;7.63;;;4.32;;
19492;SDS011;9887;54.366;10.958;2023-08-30T04:02:39;7.47;;;4.07;;
19492;SDS011;9887;54.366;10.958;2023-08-30T04:05:07;4.78;;;3.67;;
19492;SDS011;9887;54.366;10.958;2023-08-30T04:07:37;7.63;;;3.70;;
19492;SDS011;9887;54.366;10.958;2023-08-30T04:10:06;6.57;;;4.00;;
19492;SDS011;9887;54.366;10.958;2023-08-30T04:12:35;6.05;;;4.32;;
19492;SDS011;9887;54.366;10.958;2023-08-30T04:15:03;4.70;;;3.80;;
19492;SDS011;9887;54.366;10.958;2023-08-30T04:17:33;6.57;;;4.00;;
19492;SDS011;9887;54.366;10.958;2023-08-30T04:20:01;5.95;;;3.25;;
19492;SDS011;9887;54.366;10.958;2023-08-30T04:22:32;3.75;;;2.05;;
19492;SDS011;9887;54.366;10.958;2023-08-30T04:25:01;6.38;;;2.63;;
19492;SDS011;9887;54.366;10.958;2023-08-30T04:27:30;5.30;;;2.40;;
19492;SDS011;9887;54.366;10.958;2023-08-30T04:29:58;5.00;;;2.40;;
19492;SDS011;9887;54.366;10.958;2023-08-30T04:32:26;4.50;;;2.17;;
19492;SDS011;9887;54.366;10.958;2023-08-30T04:34:54;5.28;;;2.60;;
19492;SDS011;9887;54.366;10.958;2023-08-30T04:37:22;5.20;;;2.45;;
19492;SDS011;9887;54.366;10.958;2023-08-30T04:39:49;6.03;;;2.35;;
19492;SDS011;9887;54.366;10.958;2023-08-30T04:42:17;4.38;;;2.15;;
19492;SDS011;9887;54.366;10.958;2023-08-30T04:44:46;5.30;;;2.28;;
19492;SDS011;9887;54.366;10.958;2023-08-30T04:47:14;2.97;;;2.15;;
19492;SDS011;9887;54.366;10.958;2023-08-30T04:49:43;5.78;;;4.25;;
19492;SDS011;9887;54.366;10.958;2023-08-30T04:52:11;7.35;;;4.32;;
19492;SDS011;9887;54.366;10.958;2023-08-30T04:54:39;7.90;;;4.95;;
19492;SDS011;9887;54.366;10.958;2023-08-30T04:57:08;5.93;;;4.57;;
19492;SDS011;9887;54.366;10.958;2023-08-30T04:59:40;7.40;;;4.80;;
19492;SDS011;9887;54.366;10.958;2023-08-30T05:02:10;8.57;;;5.68;;
19492;SDS011;9887;54.366;10.958;2023-08-30T05:04:47;7.05;;;5.50;;
19492;SDS011;9887;54.366;10.958;2023-08-30T05:07:15;7.38;;;5.68;;
19492;SDS011;9887;54.366;10.958;2023-08-30T05:09:45;10.40;;;6.35;;
19492;SDS011;9887;54.366;10.958;2023-08-30T05:12:13;8.35;;;6.35;;
19492;SDS011;9887;54.366;10.958;2023-08-30T05:14:41;8.38;;;5.70;;
19492;SDS011;9887;54.366;10.958;2023-08-30T05:17:10;8.13;;;6.10;;
19492;SDS011;9887;54.366;10.958;2023-08-30T05:19:38;9.95;;;6.50;;
19492;SDS011;9887;54.366;10.958;2023-08-30T05:22:06;10.60;;;6.38;;
19492;SDS011;9887;54.366;10.958;2023-08-30T05:24:34;11.30;;;6.05;;
19492;SDS011;9887;54.366;10.958;2023-08-30T05:27:02;9.05;;;6.85;;
19492;SDS011;9887;54.366;10.958;2023-08-30T05:29:37;10.60;;;6.63;;
19492;SDS011;9887;54.366;10.958;2023-08-30T05:32:05;11.73;;;8.18;;
19492;SDS011;9887;54.366;10.958;2023-08-30T05:35:03;12.25;;;7.88;;
19492;SDS011;9887;54.366;10.958;2023-08-30T05:37:48;12.52;;;8.13;;
19492;SDS011;9887;54.366;10.958;2023-08-30T05:40:40;10.77;;;8.68;;
19492;SDS011;9887;54.366;10.958;2023-08-30T05:43:11;11.93;;;8.88;;
19492;SDS011;9887;54.366;10.958;2023-08-30T05:45:38;11.15;;;8.32;;
19492;SDS011;9887;54.366;10.958;2023-08-30T05:48:07;16.05;;;9.95;;
19492;SDS011;9887;54.366;10.958;2023-08-30T05:50:37;12.55;;;9.27;;
19492;SDS011;9887;54.366;10.958;2023-08-30T05:53:06;12.77;;;9.02;;
19492;SDS011;9887;54.366;10.958;2023-08-30T05:55:34;11.35;;;9.10;;
19492;SDS011;9887;54.366;10.958;2023-08-30T05:58:04;11.13;;;8.57;;
19492;SDS011;9887;54.366;10.958;2023-08-30T06:00:32;13.63;;;8.95;;
19492;SDS011;9887;54.366;10.958;2023-08-30T06:03:00;12.02;;;7.95;;
19492;SDS011;9887;54.366;10.958;2023-08-30T06:05:29;10.40;;;8.10;;
19492;SDS011;9887;54.366;10.958;2023-08-30T06:07:58;12.18;;;8.20;;
19492;SDS011;9887;54.366;10.958;2023-08-30T06:10:26;10.70;;;7.80;;
19492;SDS011;9887;54.366;10.958;2023-08-30T06:12:54;11.10;;;8.10;;
19492;SDS011;9887;54.366;10.958;2023-08-30T06:15:22;9.77;;;7.30;;
19492;SDS011;9887;54.366;10.958;2023-08-30T06:17:50;9.25;;;7.45;;
19492;SDS011;9887;54.366;10.958;2023-08-30T06:20:19;12.90;;;7.85;;
19492;SDS011;9887;54.366;10.958;2023-08-30T06:22:46;9.68;;;7.00;;
19492;SDS011;9887;54.366;10.958;2023-08-30T06:25:16;10.90;;;7.60;;
19492;SDS011;9887;54.366;10.958;2023-08-30T06:27:54;7.88;;;6.55;;
19492;SDS011;9887;54.366;10.958;2023-08-30T06:30:23;11.35;;;7.30;;
19492;SDS011;9887;54.366;10.958;2023-08-30T06:32:51;9.68;;;6.63;;
19492;SDS011;9887;54.366;10.958;2023-08-30T06:35:20;7.70;;;6.07;;
19492;SDS011;9887;54.366;10.958;2023-08-30T06:37:47;8.85;;;6.10;;
19492;SDS011;9887;54.366;10.958;2023-08-30T06:40:17;10.95;;;5.50;;
19492;SDS011;9887;54.366;10.958;2023-08-30T06:42:45;10.38;;;5.93;;
19492;SDS011;9887;54.366;10.958;2023-08-30T06:45:13;7.63;;;5.68;;
19492;SDS011;9887;54.366;10.958;2023-08-30T06:47:42;9.18;;;5.55;;
19492;SDS011;9887;54.366;10.958;2023-08-30T06:50:10;7.03;;;5.55;;
19492;SDS011;9887;54.366;10.958;2023-08-30T06:52:38;7.55;;;5.47;;
19492;SDS011;9887;54.366;10.958;2023-08-30T06:55:06;9.80;;;5.97;;
19492;SDS011;9887;54.366;10.958;2023-08-30T06:57:35;6.82;;;4.93;;
19492;SDS011;9887;54.366;10.958;2023-08-30T07:00:04;8.38;;;5.45;;
19492;SDS011;9887;54.366;10.958;2023-08-30T07:02:34;7.45;;;5.20;;
19492;SDS011;9887;54.366;10.958;2023-08-30T07:05:04;8.02;;;5.07;;
19492;SDS011;9887;54.366;10.958;2023-08-30T07:07:33;7.03;;;4.78;;
19492;SDS011;9887;54.366;10.958;2023-08-30T07:10:00;8.73;;;5.50;;
19492;SDS011;9887;54.366;10.958;2023-08-30T07:12:29;10.45;;;6.18;;
19492;SDS011;9887;54.366;10.958;2023-08-30T07:14:58;7.68;;;5.55;;
19492;SDS011;9887;54.366;10.958;2023-08-30T07:17:26;6.45;;;5.28;;
19492;SDS011;9887;54.366;10.958;2023-08-30T07:20:12;8.13;;;6.00;;
19492;SDS011;9887;54.366;10.958;2023-08-30T07:22:40;10.32;;;6.38;;
19492;SDS011;9887;54.366;10.958;2023-08-30T07:25:08;9.93;;;5.30;;
19492;SDS011;9887;54.366;10.958;2023-08-30T07:27:36;7.72;;;5.63;;
19492;SDS011;9887;54.366;10.958;2023-08-30T07:30:06;7.20;;;5.53;;
19492;SDS011;9887;54.366;10.958;2023-08-30T07:32:35;8.32;;;5.35;;
19492;SDS011;9887;54.366;10.958;2023-08-30T07:35:04;6.90;;;5.30;;
19492;SDS011;9887;54.366;10.958;2023-08-30T07:37:33;7.53;;;4.25;;
19492;SDS011;9887;54.366;10.958;2023-08-30T07:40:01;7.85;;;4.78;;
19492;SDS011;9887;54.366;10.958;2023-08-30T07:42:30;6.32;;;4.00;;
19492;SDS011;9887;54.366;10.958;2023-08-30T07:44:58;4.93;;;3.35;;
19492;SDS011;9887;54.366;10.958;2023-08-30T07:47:27;6.03;;;3.65;;
19492;SDS011;9887;54.366;10.958;2023-08-30T07:49:55;6.07;;;3.88;;
19492;SDS011;9887;54.366;10.958;2023-08-30T07:52:23;7.10;;;3.85;;
19492;SDS011;9887;54.366;10.958;2023-08-30T07:55:10;5.70;;;3.47;;
19492;SDS011;9887;54.366;10.958;2023-08-30T07:57:38;6.63;;;3.60;;
19492;SDS011;9887;54.366;10.958;2023-08-30T08:00:06;6.32;;;3.50;;
19492;SDS011;9887;54.366;10.958;2023-08-30T08:02:40;5.93;;;3.17;;
19492;SDS011;9887;54.366;10.958;2023-08-30T08:05:08;5.07;;;3.38;;
19492;SDS011;9887;54.366;10.958;2023-08-30T08:07:37;6.20;;;3.15;;
19492;SDS011;9887;54.366;10.958;2023-08-30T08:10:07;6.30;;;3.85;;
19492;SDS011;9887;54.366;10.958;2023-08-30T08:12:35;6.20;;;4.88;;
19492;SDS011;9887;54.366;10.958;2023-08-30T08:15:04;8.45;;;5.15;;
19492;SDS011;9887;54.366;10.958;2023-08-30T08:17:32;9.60;;;5.80;;
19492;SDS011;9887;54.366;10.958;2023-08-30T08:20:04;9.60;;;5.72;;
19492;SDS011;9887;54.366;10.958;2023-08-30T08:22:33;8.07;;;6.20;;
19492;SDS011;9887;54.366;10.958;2023-08-30T08:25:00;10.38;;;5.85;;
19492;SDS011;9887;54.366;10.958;2023-08-30T08:27:29;6.97;;;5.18;;
19492;SDS011;9887;54.366;10.958;2023-08-30T08:29:56;6.47;;;4.72;;
19492;SDS011;9887;54.366;10.958;2023-08-30T08:32:24;6.78;;;4.90;;
19492;SDS011;9887;54.366;10.958;2023-08-30T08:34:52;7.85;;;6.05;;
19492;SDS011;9887;54.366;10.958;2023-08-30T08:37:21;8.25;;;5.60;;
19492;SDS011;9887;54.366;10.958;2023-08-30T08:39:49;7.43;;;5.32;;
19492;SDS011;9887;54.366;10.958;2023-08-30T08:42:18;7.45;;;5.07;;
19492;SDS011;9887;54.366;10.958;2023-08-30T08:44:47;5.20;;;3.13;;
19492;SDS011;9887;54.366;10.958;2023-08-30T08:47:18;4.93;;;3.13;;
19492;SDS011;9887;54.366;10.958;2023-08-30T08:49:47;4.82;;;2.33;;
19492;SDS011;9887;54.366;10.958;2023-08-30T08:52:15;5.18;;;2.28;;
19492;SDS011;9887;54.366;10.958;2023-08-30T08:54:57;3.63;;;2.30;;
19492;SDS011;9887;54.366;10.958;2023-08-30T08:57:27;4.03;;;2.20;;
19492;SDS011;9887;54.366;10.958;2023-08-30T08:59:57;4.47;;;2.30;;
19492;SDS011;9887;54.366;10.958;2023-08-30T09:02:25;6.45;;;2.22;;
19492;SDS011;9887;54.366;10.958;2023-08-30T09:04:55;4.18;;;2.17;;
19492;SDS011;9887;54.366;10.958;2023-08-30T09:07:24;3.55;;;1.73;;
19492;SDS011;9887;54.366;10.958;2023-08-30T09:09:54;2.95;;;1.92;;
19492;SDS011;9887;54.366;10.958;2023-08-30T09:12:23;4.75;;;1.92;;
19492;SDS011;9887;54.366;10.958;2023-08-30T09:14:55;3.53;;;2.20;;
19492;SDS011;9887;54.366;10.958;2023-08-30T09:17:24;6.97;;;2.42;;
19492;SDS011;9887;54.366;10.958;2023-08-30T09:20:06;3.65;;;2.17;;
19492;SDS011;9887;54.366;10.958;2023-08-30T09:22:41;6.35;;;2.75;;
19492;SDS011;9887;54.366;10.958;2023-08-30T09:25:10;5.68;;;2.65;;
19492;SDS011;9887;54.366;10.958;2023-08-30T09:27:50;4.82;;;2.67;;
19492;SDS011;9887;54.366;10.958;2023-08-30T09:30:21;4.50;;;2.90;;
19492;SDS011;9887;54.366;10.958;2023-08-30T09:32:49;4.55;;;3.05;;
19492;SDS011;9887;54.366;10.958;2023-08-30T09:35:17;3.75;;;2.50;;
19492;SDS011;9887;54.366;10.958;2023-08-30T09:37:45;4.65;;;2.25;;
19492;SDS011;9887;54.366;10.958;2023-08-30T09:40:18;4.15;;;2.65;;
19492;SDS011;9887;54.366;10.958;2023-08-30T09:42:46;4.00;;;2.40;;
19492;SDS011;9887;54.366;10.958;2023-08-30T09:45:36;5.65;;;2.28;;
19492;SDS011;9887;54.366;10.958;2023-08-30T09:48:05;4.53;;;2.42;;
19492;SDS011;9887;54.366;10.958;2023-08-30T09:50:33;4.63;;;2.60;;
19492;SDS011;9887;54.366;10.958;2023-08-30T09:53:05;4.03;;;2.58;;
19492;SDS011;9887;54.366;10.958;2023-08-30T09:55:36;6.30;;;3.63;;
19492;SDS011;9887;54.366;10.958;2023-08-30T09:58:05;5.63;;;3.50;;
19492;SDS011;9887;54.366;10.958;2023-08-30T10:00:33;4.68;;;3.08;;
19492;SDS011;9887;54.366;10.958;2023-08-30T10:03:03;4.95;;;3.40;;
19492;SDS011;9887;54.366;10.958;2023-08-30T10:05:35;5.05;;;2.92;;
19492;SDS011;9887;54.366;10.958;2023-08-30T10:08:03;4.75;;;2.90;;
19492;SDS011;9887;54.366;10.958;2023-08-30T10:10:34;5.32;;;2.88;;
19492;SDS011;9887;54.366;10.958;2023-08-30T10:13:03;4.05;;;2.20;;
19492;SDS011;9887;54.366;10.958;2023-08-30T10:15:39;4.72;;;2.67;;
19492;SDS011;9887;54.366;10.958;2023-08-30T10:18:10;4.50;;;2.63;;
19492;SDS011;9887;54.366;10.958;2023-08-30T10:20:42;3.28;;;2.00;;
19492;SDS011;9887;54.366;10.958;2023-08-30T10:23:11;4.15;;;2.40;;
19492;SDS011;9887;54.366;10.958;2023-08-30T10:25:40;3.67;;;1.40;;
19492;SDS011;9887;54.366;10.958;2023-08-30T10:28:10;5.32;;;2.72;;
19492;SDS011;9887;54.366;10.958;2023-08-30T10:30:40;3.67;;;2.25;;
19492;SDS011;9887;54.366;10.958;2023-08-30T10:33:11;3.08;;;1.80;;
19492;SDS011;9887;54.366;10.958;2023-08-30T10:35:46;3.83;;;1.90;;
19492;SDS011;9887;54.366;10.958;2023-08-30T10:38:24;6.55;;;2.03;;
19492;SDS011;9887;54.366;10.958;2023-08-30T10:40:53;3.00;;;1.52;;
19492;SDS011;9887;54.366;10.958;2023-08-30T10:43:30;3.10;;;1.58;;
19492;SDS011;9887;54.366;10.958;2023-08-30T10:46:02;3.78;;;1.52;;
19492;SDS011;9887;54.366;10.958;2023-08-30T10:48:36;4.63;;;2.10;;
19492;SDS011;9887;54.366;10.958;2023-08-30T10:51:06;2.90;;;1.25;;
19492;SDS011;9887;54.366;10.958;2023-08-30T10:53:56;3.15;;;1.48;;
19492;SDS011;9887;54.366;10.958;2023-08-30T10:56:28;4.60;;;3.33;;
19492;SDS011;9887;54.366;10.958;2023-08-30T10:58:57;3.78;;;2.75;;
19492;SDS011;9887;54.366;10.958;2023-08-30T11:01:26;4.35;;;2.80;;
19492;SDS011;9887;54.366;10.958;2023-08-30T11:03:54;4.18;;;2.40;;
19492;SDS011;9887;54.366;10.958;2023-08-30T11:06:41;4.03;;;2.03;;
19492;SDS011;9887;54.366;10.958;2023-08-30T11:09:09;3.80;;;2.15;;
19492;SDS011;9887;54.366;10.958;2023-08-30T11:11:39;3.40;;;2.13;;
19492;SDS011;9887;54.366;10.958;2023-08-30T11:14:07;4.65;;;2.40;;
19492;SDS011;9887;54.366;10.958;2023-08-30T11:16:37;4.40;;;2.53;;
19492;SDS011;9887;54.366;10.958;2023-08-30T11:19:05;4.10;;;3.10;;
19492;SDS011;9887;54.366;10.958;2023-08-30T11:21:36;3.40;;;2.45;;
19492;SDS011;9887;54.366;10.958;2023-08-30T11:24:05;5.35;;;3.47;;
19492;SDS011;9887;54.366;10.958;2023-08-30T11:26:34;5.60;;;3.75;;
19492;SDS011;9887;54.366;10.958;2023-08-30T11:29:05;4.00;;;2.80;;
19492;SDS011;9887;54.366;10.958;2023-08-30T11:31:33;6.43;;;3.20;;
19492;SDS011;9887;54.366;10.958;2023-08-30T11:34:03;4.72;;;3.20;;
19492;SDS011;9887;54.366;10.958;2023-08-30T11:36:31;4.13;;;2.63;;
19492;SDS011;9887;54.366;10.958;2023-08-30T11:39:02;5.85;;;3.10;;
19492;SDS011;9887;54.366;10.958;2023-08-30T11:41:30;4.15;;;2.53;;
19492;SDS011;9887;54.366;10.958;2023-08-30T11:43:59;4.35;;;2.67;;
19492;SDS011;9887;54.366;10.958;2023-08-30T11:46:26;4.47;;;2.80;;
19492;SDS011;9887;54.366;10.958;2023-08-30T11:48:54;5.40;;;3.17;;
19492;SDS011;9887;54.366;10.958;2023-08-30T11:51:24;7.88;;;4.30;;
19492;SDS011;9887;54.366;10.958;2023-08-30T11:53:52;5.95;;;2.78;;
19492;SDS011;9887;54.366;10.958;2023-08-30T11:56:20;4.53;;;2.45;;
19492;SDS011;9887;54.366;10.958;2023-08-30T11:58:49;4.65;;;2.03;;
19492;SDS011;9887;54.366;10.958;2023-08-30T12:01:17;5.55;;;3.70;;
19492;SDS011;9887;54.366;10.958;2023-08-30T12:03:46;5.65;;;3.58;;
19492;SDS011;9887;54.366;10.958;2023-08-30T12:06:17;5.43;;;3.03;;
19492;SDS011;9887;54.366;10.958;2023-08-30T12:08:46;7.47;;;2.88;;
19492;SDS011;9887;54.366;10.958;2023-08-30T12:11:17;4.40;;;2.80;;
19492;SDS011;9887;54.366;10.958;2023-08-30T12:13:46;4.20;;;2.33;;
19492;SDS011;9887;54.366;10.958;2023-08-30T12:16:15;3.53;;;2.20;;
19492;SDS011;9887;54.366;10.958;2023-08-30T12:18:43;5.13;;;2.17;;
19492;SDS011;9887;54.366;10.958;2023-08-30T12:21:12;4.75;;;2.38;;
19492;SDS011;9887;54.366;10.958;2023-08-30T12:23:41;4.28;;;2.35;;
19492;SDS011;9887;54.366;10.958;2023-08-30T12:26:11;4.05;;;2.17;;
19492;SDS011;9887;54.366;10.958;2023-08-30T12:28:40;5.40;;;2.10;;
19492;SDS011;9887;54.366;10.958;2023-08-30T12:31:10;2.83;;;1.90;;
19492;SDS011;9887;54.366;10.958;2023-08-30T12:33:38;4.13;;;2.67;;
19492;SDS011;9887;54.366;10.958;2023-08-30T12:36:07;4.28;;;2.38;;
19492;SDS011;9887;54.366;10.958;2023-08-30T12:38:35;5.32;;;3.25;;
19492;SDS011;9887;54.366;10.958;2023-08-30T12:41:03;4.68;;;2.20;;
19492;SDS011;9887;54.366;10.958;2023-08-30T12:43:32;3.75;;;2.30;;
19492;SDS011;9887;54.366;10.958;2023-08-30T12:46:00;3.15;;;2.20;;
19492;SDS011;9887;54.366;10.958;2023-08-30T12:48:28;5.40;;;2.97;;
19492;SDS011;9887;54.366;10.958;2023-08-30T12:50:56;5.40;;;3.33;;
19492;SDS011;9887;54.366;10.958;2023-08-30T12:53:23;5.82;;;2.90;;
19492;SDS011;9887;54.366;10.958;2023-08-30T12:55:51;5.20;;;2.78;;
19492;SDS011;9887;54.366;10.958;2023-08-30T12:58:19;5.18;;;2.65;;
19492;SDS011;9887;54.366;10.958;2023-08-30T13:00:48;5.03;;;2.90;;
19492;SDS011;9887;54.366;10.958;2023-08-30T13:03:17;4.60;;;3.20;;
19492;SDS011;9887;54.366;10.958;2023-08-30T13:05:45;4.68;;;2.25;;
19492;SDS011;9887;54.366;10.958;2023-08-30T13:08:12;11.23;;;2.70;;
19492;SDS011;9887;54.366;10.958;2023-08-30T13:10:40;4.40;;;2.47;;
19492;SDS011;9887;54.366;10.958;2023-08-30T13:13:10;5.82;;;2.58;;
19492;SDS011;9887;54.366;10.958;2023-08-30T13:15:38;3.83;;;2.53;;
19492;SDS011;9887;54.366;10.958;2023-08-30T13:18:07;8.32;;;3.13;;
19492;SDS011;9887;54.366;10.958;2023-08-30T13:20:37;4.68;;;2.75;;
19492;SDS011;9887;54.366;10.958;2023-08-30T13:23:06;5.00;;;3.67;;
19492;SDS011;9887;54.366;10.958;2023-08-30T13:25:34;5.53;;;3.28;;
19492;SDS011;9887;54.366;10.958;2023-08-30T13:28:05;5.95;;;3.45;;
19492;SDS011;9887;54.366;10.958;2023-08-30T13:30:33;4.78;;;3.72;;
19492;SDS011;9887;54.366;10.958;2023-08-30T13:33:01;4.80;;;3.50;;
19492;SDS011;9887;54.366;10.958;2023-08-30T13:35:31;8.10;;;4.30;;
19492;SDS011;9887;54.366;10.958;2023-08-30T13:37:59;6.30;;;3.67;;
19492;SDS011;9887;54.366;10.958;2023-08-30T13:40:26;8.95;;;4.32;;
19492;SDS011;9887;54.366;10.958;2023-08-30T13:42:54;5.43;;;3.35;;
19492;SDS011;9887;54.366;10.958;2023-08-30T13:45:22;4.40;;;2.90;;
19492;SDS011;9887;54.366;10.958;2023-08-30T13:47:50;6.53;;;3.42;;
19492;SDS011;9887;54.366;10.958;2023-08-30T13:50:21;5.43;;;3.40;;
19492;SDS011;9887;54.366;10.958;2023-08-30T13:52:50;6.65;;;4.07;;
19492;SDS011;9887;54.366;10.958;2023-08-30T13:55:18;7.18;;;4.72;;
19492;SDS011;9887;54.366;10.958;2023-08-30T13:57:46;6.95;;;3.95;;
19492;SDS011;9887;54.366;10.958;2023-08-30T14:00:14;5.97;;;3.92;;
19492;SDS011;9887;54.366;10.958;2023-08-30T14:02:42;7.10;;;2.92;;
19492;SDS011;9887;54.366;10.958;2023-08-30T14:05:10;4.70;;;3.45;;
19492;SDS011;9887;54.366;10.958;2023-08-30T14:07:38;5.95;;;2.53;;
19492;SDS011;9887;54.366;10.958;2023-08-30T14:10:07;8.82;;;5.22;;
19492;SDS011;9887;54.366;10.958;2023-08-30T14:12:37;6.32;;;3.00;;
19492;SDS011;9887;54.366;10.958;2023-08-30T14:15:05;5.70;;;3.60;;
19492;SDS011;9887;54.366;10.958;2023-08-30T14:17:33;5.97;;;4.30;;
19492;SDS011;9887;54.366;10.958;2023-08-30T14:20:01;5.97;;;5.13;;
19492;SDS011;9887;54.366;10.958;2023-08-30T14:22:30;7.20;;;4.60;;
19492;SDS011;9887;54.366;10.958;2023-08-30T14:24:57;5.68;;;4.32;;
19492;SDS011;9887;54.366;10.958;2023-08-30T14:27:39;9.30;;;4.60;;
19492;SDS011;9887;54.366;10.958;2023-08-30T14:30:07;4.82;;;3.72;;
19492;SDS011;9887;54.366;10.958;2023-08-30T14:32:35;6.07;;;4.13;;
19492;SDS011;9887;54.366;10.958;2023-08-30T14:35:03;6.13;;;4.20;;
19492;SDS011;9887;54.366;10.958;2023-08-30T14:37:32;5.57;;;3.92;;
19492;SDS011;9887;54.366;10.958;2023-08-30T14:40:01;5.90;;;4.60;;
19492;SDS011;9887;54.366;10.958;2023-08-30T14:42:30;8.48;;;4.07;;
19492;SDS011;9887;54.366;10.958;2023-08-30T14:45:00;5.13;;;3.80;;
19492;SDS011;9887;54.366;10.958;2023-08-30T14:47:29;4.63;;;2.88;;
19492;SDS011;9887;54.366;10.958;2023-08-30T14:49:57;6.40;;;5.10;;
19492;SDS011;9887;54.366;10.958;2023-08-30T14:52:27;9.60;;;4.97;;
19492;SDS011;9887;54.366;10.958;2023-08-30T14:54:55;5.45;;;3.20;;
19492;SDS011;9887;54.366;10.958;2023-08-30T14:57:23;6.15;;;3.67;;
19492;SDS011;9887;54.366;10.958;2023-08-30T14:59:52;5.22;;;3.20;;